createdAt,value
2023-08-10T00:00:50.541Z,5.00
2023-08-10T00:03:17.507Z,5.00
2023-08-10T00:05:45.094Z,4.00
2023-08-10T00:08:14.513Z,3.90
2023-08-10T00:10:41.415Z,4.40
2023-08-10T00:13:09.782Z,4.50
2023-08-10T00:15:38.001Z,4.97
2023-08-10T00:18:05.688Z,4.47
2023-08-10T00:20:32.620Z,4.10
2023-08-10T00:22:59.480Z,3.83
2023-08-10T00:25:26.374Z,4.50
2023-08-10T00:27:54.683Z,4.00
2023-08-10T00:30:23.395Z,4.07
2023-08-10T00:32:50.335Z,4.00
2023-08-10T00:35:17.402Z,4.30
2023-08-10T00:37:44.304Z,4.43
2023-08-10T00:40:14.026Z,3.70
2023-08-10T00:42:41.198Z,4.70
2023-08-10T00:45:09.138Z,5.13
2023-08-10T00:47:36.548Z,5.77
2023-08-10T00:50:05.101Z,4.90
2023-08-10T00:52:32.629Z,4.33
2023-08-10T00:54:59.772Z,4.70
2023-08-10T00:57:26.967Z,4.40
2023-08-10T00:59:54.884Z,4.47
2023-08-10T01:02:22.764Z,3.90
2023-08-10T01:04:50.997Z,3.83
2023-08-10T01:07:34.571Z,3.70
2023-08-10T01:10:45.310Z,4.40
2023-08-10T01:13:55.421Z,4.33
2023-08-10T01:16:23.638Z,4.07
2023-08-10T01:18:52.740Z,3.83
2023-08-10T01:21:51.979Z,4.57
2023-08-10T01:24:27.223Z,4.00
2023-08-10T01:26:56.639Z,4.73
2023-08-10T01:29:24.569Z,3.90
2023-08-10T01:31:52.953Z,3.80
2023-08-10T01:34:21.946Z,3.30
2023-08-10T01:36:49.290Z,4.10
2023-08-10T01:39:19.175Z,3.00
2023-08-10T01:41:47.279Z,3.83
2023-08-10T01:44:14.270Z,3.93
2023-08-10T01:46:43.739Z,4.40
2023-08-10T01:49:14.560Z,3.20
2023-08-10T01:51:44.898Z,3.57
2023-08-10T01:54:13.516Z,3.97
2023-08-10T01:56:41.798Z,3.80
2023-08-10T01:59:12.215Z,3.57
2023-08-10T02:01:39.776Z,4.20
2023-08-10T02:04:09.053Z,3.80
2023-08-10T02:06:41.390Z,4.03
2023-08-10T02:09:09.157Z,3.50
2023-08-10T02:11:36.047Z,3.73
2023-08-10T02:14:03.340Z,3.60
2023-08-10T02:16:32.496Z,3.47
2023-08-10T02:19:00.349Z,3.03
2023-08-10T02:21:28.397Z,3.60
2023-08-10T02:23:55.828Z,3.47
2023-08-10T02:26:22.977Z,3.43
2023-08-10T02:28:50.161Z,3.50
2023-08-10T02:31:17.676Z,4.40
2023-08-10T02:33:45.990Z,3.50
2023-08-10T02:36:13.499Z,3.17
2023-08-10T02:38:40.625Z,3.37
2023-08-10T02:41:07.838Z,3.50
2023-08-10T02:43:35.702Z,3.70
2023-08-10T02:46:04.885Z,3.37
2023-08-10T02:48:33.680Z,3.70
2023-08-10T02:51:00.895Z,3.30
2023-08-10T02:53:28.962Z,3.80
2023-08-10T02:55:57.111Z,3.60
2023-08-10T02:58:24.463Z,4.40
2023-08-10T03:00:51.628Z,3.77
2023-08-10T03:03:19.562Z,2.80
2023-08-10T03:05:46.660Z,3.10
2023-08-10T03:08:14.649Z,3.70
2023-08-10T03:10:42.585Z,3.40
2023-08-10T03:13:10.574Z,3.83
2023-08-10T03:15:37.685Z,3.50
2023-08-10T03:18:06.844Z,3.07
2023-08-10T03:20:35.667Z,3.10
2023-08-10T03:23:03.596Z,3.40
2023-08-10T03:25:31.634Z,3.90
2023-08-10T03:27:59.315Z,3.60
2023-08-10T03:30:27.451Z,3.47
2023-08-10T03:32:55.857Z,3.80
2023-08-10T03:35:23.127Z,2.80
2023-08-10T03:37:50.428Z,3.43
2023-08-10T03:40:17.808Z,3.30
2023-08-10T03:42:45.637Z,3.30
2023-08-10T03:45:12.982Z,3.07
2023-08-10T03:47:40.630Z,3.40
2023-08-10T03:50:09.569Z,3.57
2023-08-10T03:52:38.819Z,3.50
2023-08-10T03:55:07.352Z,3.00
2023-08-10T03:57:34.582Z,3.50
2023-08-10T04:00:01.643Z,3.00
2023-08-10T04:02:30.400Z,3.37
2023-08-10T04:04:57.630Z,2.83
2023-08-10T04:07:27.993Z,2.90
2023-08-10T04:09:57.558Z,3.10
2023-08-10T04:12:24.910Z,3.00
2023-08-10T04:14:52.509Z,3.27
2023-08-10T04:17:20.096Z,3.10
2023-08-10T04:19:49.245Z,3.27
2023-08-10T04:22:17.624Z,3.47
2023-08-10T04:24:44.960Z,3.00
2023-08-10T04:27:12.968Z,3.10
2023-08-10T04:29:43.311Z,3.23
2023-08-10T04:32:11.622Z,2.87
2023-08-10T04:34:38.918Z,3.20
2023-08-10T04:37:06.024Z,2.93
2023-08-10T04:39:35.294Z,2.60
2023-08-10T04:42:03.282Z,3.10
2023-08-10T04:44:31.204Z,3.30
2023-08-10T04:46:58.774Z,3.33
2023-08-10T04:49:28.070Z,2.27
2023-08-10T04:51:58.635Z,3.00
2023-08-10T04:54:26.414Z,2.47
2023-08-10T04:56:54.620Z,2.73
2023-08-10T04:59:24.128Z,2.70
2023-08-10T05:01:51.326Z,3.10
2023-08-10T05:04:18.882Z,2.77
2023-08-10T05:06:48.908Z,2.70
2023-08-10T05:09:17.152Z,3.40
2023-08-10T05:11:46.610Z,3.10
2023-08-10T05:14:15.121Z,3.13
2023-08-10T05:16:42.460Z,2.57
2023-08-10T05:19:10.674Z,3.17
2023-08-10T05:21:37.927Z,2.60
2023-08-10T05:24:05.953Z,4.00
2023-08-10T05:26:34.734Z,3.57
2023-08-10T05:29:01.642Z,2.80
2023-08-10T05:31:28.878Z,2.60
2023-08-10T05:33:56.351Z,2.97
2023-08-10T05:36:23.294Z,2.43
2023-08-10T05:38:50.335Z,2.60
2023-08-10T05:41:17.502Z,2.80
2023-08-10T05:43:44.392Z,2.20
2023-08-10T05:46:11.355Z,3.03
2023-08-10T05:48:38.336Z,2.47
2023-08-10T05:51:08.424Z,2.23
2023-08-10T05:53:35.447Z,2.20
2023-08-10T05:56:02.435Z,2.17
2023-08-10T05:58:29.392Z,2.30
2023-08-10T06:00:57.375Z,2.63
2023-08-10T06:03:24.452Z,2.03
2023-08-10T06:05:51.440Z,2.10
2023-08-10T06:08:18.415Z,2.13
2023-08-10T06:10:45.331Z,2.00
2023-08-10T06:13:12.196Z,3.27
2023-08-10T06:15:39.158Z,3.60
2023-08-10T06:18:06.626Z,2.90
2023-08-10T06:20:34.800Z,2.10
2023-08-10T06:23:01.764Z,1.97
2023-08-10T06:25:28.855Z,2.20
2023-08-10T06:27:55.754Z,2.17
2023-08-10T06:30:23.068Z,1.77
2023-08-10T06:32:50.262Z,1.90
2023-08-10T06:35:19.498Z,1.50
2023-08-10T06:37:46.522Z,1.90
2023-08-10T06:40:13.484Z,2.93
2023-08-10T06:42:40.385Z,2.50
2023-08-10T06:45:07.792Z,2.20
2023-08-10T06:47:34.712Z,1.90
2023-08-10T06:50:01.931Z,2.07
2023-08-10T06:52:29.474Z,1.77
2023-08-10T06:54:56.349Z,1.83
2023-08-10T06:57:23.496Z,2.10
2023-08-10T07:02:22.410Z,1.40
2023-08-10T07:04:49.426Z,1.60
2023-08-10T07:07:16.400Z,1.00
2023-08-10T07:09:43.640Z,1.23
2023-08-10T07:12:11.086Z,1.27
2023-08-10T07:14:38.133Z,1.23
2023-08-10T07:17:05.391Z,1.37
2023-08-10T07:19:32.664Z,1.20
2023-08-10T07:21:59.505Z,2.00
2023-08-10T07:24:26.748Z,2.00
2023-08-10T07:26:53.655Z,1.30
2023-08-10T07:29:20.724Z,1.10
2023-08-10T07:31:48.599Z,1.00
2023-08-10T07:34:16.161Z,1.63
2023-08-10T07:36:43.097Z,1.20
2023-08-10T07:39:10.025Z,1.17
2023-08-10T07:41:36.976Z,1.27
2023-08-10T07:44:04.303Z,1.10
2023-08-10T07:46:32.239Z,0.98
2023-08-10T07:48:59.186Z,1.38
2023-08-10T07:51:26.176Z,1.17
2023-08-10T07:53:53.612Z,1.00
2023-08-10T07:56:20.616Z,1.60
2023-08-10T07:58:47.626Z,1.08
2023-08-10T08:01:15.527Z,1.20
2023-08-10T08:03:42.727Z,0.95
2023-08-10T08:06:09.822Z,0.82
2023-08-10T08:08:36.822Z,1.20
2023-08-10T08:11:04.401Z,1.30
2023-08-10T08:13:31.412Z,1.05
2023-08-10T08:15:58.551Z,0.70
2023-08-10T08:18:51.192Z,0.80
2023-08-10T08:21:23.223Z,1.20
2023-08-10T08:23:51.984Z,1.20
2023-08-10T08:26:20.102Z,0.90
2023-08-10T08:28:48.008Z,1.23
2023-08-10T08:31:15.817Z,1.23
2023-08-10T08:33:43.373Z,0.90
2023-08-10T08:36:10.805Z,1.10
2023-08-10T08:38:38.890Z,1.27
2023-08-10T08:41:09.064Z,1.15
2023-08-10T08:43:37.363Z,1.00
2023-08-10T08:46:05.896Z,1.27
2023-08-10T08:48:34.318Z,1.27
2023-08-10T08:51:01.352Z,1.75
2023-08-10T08:53:28.258Z,1.17
2023-08-10T08:55:55.248Z,1.52
2023-08-10T08:58:22.509Z,1.63
2023-08-10T09:00:54.856Z,1.23
2023-08-10T09:03:23.533Z,1.50
2023-08-10T09:05:50.732Z,1.83
2023-08-10T09:08:18.993Z,1.75
2023-08-10T09:10:48.042Z,1.58
2023-08-10T09:13:22.494Z,1.42
2023-08-10T09:16:10.812Z,1.10
2023-08-10T09:18:40.073Z,1.10
2023-08-10T09:21:14.661Z,1.65
2023-08-10T09:23:47.012Z,1.55
2023-08-10T09:26:18.012Z,1.42
2023-08-10T09:28:46.511Z,1.20
2023-08-10T09:31:15.620Z,1.02
2023-08-10T09:33:43.095Z,1.00
2023-08-10T09:36:10.627Z,1.15
2023-08-10T09:38:37.675Z,1.00
2023-08-10T09:41:12.348Z,1.42
2023-08-10T09:43:46.165Z,0.70
2023-08-10T09:46:15.406Z,1.13
2023-08-10T09:48:46.190Z,1.30
2023-08-10T09:51:16.325Z,0.70
2023-08-10T09:53:43.503Z,0.93
2023-08-10T09:56:10.545Z,1.10
2023-08-10T09:58:38.975Z,1.95
2023-08-10T10:01:09.214Z,1.33
2023-08-10T10:03:36.854Z,0.90
2023-08-10T10:06:04.479Z,1.10
2023-08-10T10:08:35.869Z,1.15
2023-08-10T10:11:07.733Z,1.73
2023-08-10T10:13:35.486Z,1.10
2023-08-10T10:16:03.372Z,1.00
2023-08-10T10:18:31.190Z,0.90
2023-08-10T10:20:58.249Z,0.80
2023-08-10T10:23:25.264Z,0.80
2023-08-10T10:26:00.232Z,1.02
2023-08-10T10:28:32.427Z,1.02
2023-08-10T10:31:15.122Z,0.80
2023-08-10T10:33:57.239Z,0.98
2023-08-10T10:36:26.686Z,1.00
2023-08-10T10:39:05.655Z,1.08
2023-08-10T10:41:34.107Z,0.70
2023-08-10T10:44:03.351Z,1.00
2023-08-10T10:46:37.568Z,0.65
2023-08-10T10:49:12.008Z,0.80
2023-08-10T10:52:03.783Z,0.82
2023-08-10T10:54:37.112Z,0.70
2023-08-10T10:57:04.806Z,0.80
2023-08-10T10:59:31.892Z,0.70
2023-08-10T11:01:59.625Z,0.77
2023-08-10T11:04:26.618Z,1.00
2023-08-10T11:07:00.261Z,0.93
2023-08-10T11:09:27.332Z,0.82
2023-08-10T11:11:55.694Z,0.95
2023-08-10T11:14:26.871Z,1.20
2023-08-10T11:16:55.502Z,0.73
2023-08-10T11:19:24.032Z,0.82
2023-08-10T11:21:53.007Z,1.00
2023-08-10T11:24:31.727Z,0.90
2023-08-10T11:27:06.180Z,0.80
2023-08-10T11:29:33.730Z,0.98
2023-08-10T11:32:01.333Z,0.90
2023-08-10T11:34:28.946Z,1.10
2023-08-10T11:36:56.274Z,0.98
2023-08-10T11:39:24.451Z,0.90
2023-08-10T11:41:51.672Z,1.20
2023-08-10T11:44:34.656Z,1.03
2023-08-10T11:47:01.629Z,1.30
2023-08-10T11:49:33.457Z,0.85
2023-08-10T11:52:04.054Z,0.82
2023-08-10T11:54:36.024Z,0.88
2023-08-10T11:57:11.556Z,0.80
2023-08-10T11:59:39.058Z,0.95
2023-08-10T12:02:11.102Z,0.70
2023-08-10T12:04:38.428Z,1.20
2023-08-10T12:07:06.048Z,1.07
2023-08-10T12:09:33.434Z,1.10
2023-08-10T12:12:00.921Z,1.00
2023-08-10T12:14:28.296Z,0.90
2023-08-10T12:16:55.302Z,1.00
2023-08-10T12:19:22.463Z,1.10
2023-08-10T12:21:49.356Z,0.90
2023-08-10T12:24:16.311Z,1.10
2023-08-10T12:26:45.527Z,1.00
2023-08-10T12:29:14.863Z,1.00
2023-08-10T12:31:45.221Z,1.13
2023-08-10T12:34:13.354Z,1.10
2023-08-10T12:36:40.371Z,1.37
2023-08-10T12:39:08.839Z,1.00
2023-08-10T12:41:35.774Z,1.20
2023-08-10T12:44:02.749Z,1.10
2023-08-10T12:46:29.861Z,1.10
2023-08-10T12:48:56.816Z,3.80
2023-08-10T12:51:24.152Z,1.10
2023-08-10T12:53:51.071Z,1.30
2023-08-10T12:56:17.992Z,1.07
2023-08-10T12:58:44.873Z,1.13
2023-08-10T13:01:11.845Z,1.00
2023-08-10T13:03:38.861Z,1.13
2023-08-10T13:06:05.928Z,0.90
2023-08-10T13:08:32.931Z,0.80
2023-08-10T13:11:00.039Z,1.30
2023-08-10T13:13:26.961Z,1.03
2023-08-10T13:15:53.933Z,1.27
2023-08-10T13:18:20.894Z,1.37
2023-08-10T13:20:47.826Z,1.50
2023-08-10T13:23:14.853Z,1.10
2023-08-10T13:25:41.843Z,0.97
2023-08-10T13:28:08.780Z,0.80
2023-08-10T13:30:36.512Z,0.73
2023-08-10T13:33:03.991Z,1.33
2023-08-10T13:35:30.950Z,1.53
2023-08-10T13:37:57.851Z,1.00
2023-08-10T13:40:24.688Z,1.00
2023-08-10T13:42:51.677Z,0.93
2023-08-10T13:45:18.596Z,1.37
2023-08-10T13:47:45.565Z,0.80
2023-08-10T13:52:39.626Z,1.23
2023-08-10T13:55:08.208Z,1.20
2023-08-10T13:57:35.186Z,1.27
2023-08-10T14:00:02.083Z,1.27
2023-08-10T14:02:29.065Z,0.93
2023-08-10T14:04:56.097Z,1.00
2023-08-10T14:07:23.498Z,0.87
2023-08-10T14:09:51.166Z,1.10
2023-08-10T14:12:18.160Z,0.77
2023-08-10T14:14:45.063Z,0.80
2023-08-10T14:17:11.938Z,1.30
2023-08-10T14:19:39.075Z,1.00
2023-08-10T14:22:06.324Z,0.80
2023-08-10T14:24:33.613Z,1.10
2023-08-10T14:27:00.580Z,1.17
2023-08-10T14:29:27.640Z,0.90
2023-08-10T14:31:54.942Z,1.07
2023-08-10T14:34:22.405Z,1.17
2023-08-10T14:36:49.424Z,2.07
2023-08-10T14:39:17.734Z,1.70
2023-08-10T14:41:48.885Z,0.83
2023-08-10T14:44:15.835Z,1.10
2023-08-10T14:46:43.180Z,0.93
2023-08-10T14:49:10.144Z,1.10
2023-08-10T14:51:37.094Z,0.90
2023-08-10T14:54:04.507Z,0.93
2023-08-10T14:56:31.611Z,1.20
2023-08-10T14:58:58.619Z,1.10
2023-08-10T15:01:25.662Z,0.90
2023-08-10T15:03:52.597Z,1.83
2023-08-10T15:06:19.754Z,1.07
2023-08-10T15:08:46.733Z,1.23
2023-08-10T15:11:14.238Z,1.20
2023-08-10T15:13:41.283Z,1.00
2023-08-10T15:16:08.289Z,0.97
2023-08-10T15:18:35.530Z,1.17
2023-08-10T15:21:02.517Z,1.00
2023-08-10T15:26:00.283Z,1.50
2023-08-10T15:28:27.313Z,1.37
2023-08-10T15:30:54.681Z,1.33
2023-08-10T15:33:22.033Z,1.20
2023-08-10T15:35:49.039Z,1.13
2023-08-10T15:38:15.961Z,1.00
2023-08-10T15:40:43.538Z,1.10
2023-08-10T15:43:10.477Z,1.17
2023-08-10T15:45:38.376Z,1.17
2023-08-10T15:48:06.277Z,1.40
2023-08-10T15:50:33.505Z,1.20
2023-08-10T15:53:01.308Z,1.20
2023-08-10T15:55:28.311Z,1.33
2023-08-10T15:57:55.275Z,1.10
2023-08-10T16:00:22.671Z,1.50
2023-08-10T16:02:50.954Z,1.30
2023-08-10T16:05:18.114Z,1.10
2023-08-10T16:07:45.158Z,1.10
2023-08-10T16:10:12.274Z,0.93
2023-08-10T16:12:39.620Z,1.80
2023-08-10T16:15:08.054Z,1.00
2023-08-10T16:17:35.971Z,1.27
2023-08-10T16:20:04.308Z,1.70
2023-08-10T16:22:31.401Z,1.23
2023-08-10T16:24:58.549Z,1.50
2023-08-10T16:27:25.657Z,1.83
2023-08-10T16:29:52.672Z,1.50
2023-08-10T16:32:20.351Z,1.70
2023-08-10T16:34:47.494Z,1.30
2023-08-10T16:37:14.770Z,1.10
2023-08-10T16:39:41.914Z,1.07
2023-08-10T16:42:09.445Z,1.00
2023-08-10T16:44:36.574Z,1.27
2023-08-10T16:47:03.633Z,1.03
2023-08-10T16:49:30.748Z,1.30
2023-08-10T16:51:57.916Z,1.40
2023-08-10T16:54:24.844Z,1.30
2023-08-10T16:56:51.924Z,1.30
2023-08-10T16:59:18.884Z,1.53
2023-08-10T17:01:45.807Z,1.00
2023-08-10T17:04:12.759Z,1.60
2023-08-10T17:06:39.806Z,1.80
2023-08-10T17:09:07.544Z,1.70
2023-08-10T17:11:34.437Z,1.37
2023-08-10T17:14:01.437Z,2.10
2023-08-10T17:16:28.424Z,1.37
2023-08-10T17:18:55.342Z,1.60
2023-08-10T17:21:22.287Z,1.93
2023-08-10T17:23:49.342Z,2.10
2023-08-10T17:26:16.395Z,2.20
2023-08-10T17:28:43.451Z,2.30
2023-08-10T17:31:11.387Z,2.73
2023-08-10T17:33:40.581Z,2.27
2023-08-10T17:36:07.958Z,1.77
2023-08-10T17:38:35.512Z,1.93
2023-08-10T17:41:02.546Z,1.90
2023-08-10T17:43:33.203Z,1.47
2023-08-10T17:46:00.200Z,2.77
2023-08-10T17:48:27.163Z,1.67
2023-08-10T17:50:54.180Z,1.50
2023-08-10T17:53:21.146Z,1.70
2023-08-10T17:55:49.552Z,1.60
2023-08-10T17:58:16.629Z,2.07
2023-08-10T18:00:45.344Z,2.20
2023-08-10T18:03:12.670Z,1.80
2023-08-10T18:05:39.673Z,1.60
2023-08-10T18:08:07.104Z,1.67
2023-08-10T18:10:34.168Z,1.90
2023-08-10T18:13:01.099Z,2.20
2023-08-10T18:15:28.022Z,1.40
2023-08-10T18:17:55.024Z,1.90
2023-08-10T18:20:21.971Z,1.90
2023-08-10T18:22:48.967Z,2.30
2023-08-10T18:25:16.941Z,1.73
2023-08-10T18:27:43.987Z,1.83
2023-08-10T18:30:14.289Z,1.80
2023-08-10T18:32:42.923Z,1.90
2023-08-10T18:35:10.264Z,2.40
2023-08-10T18:37:39.526Z,2.30
2023-08-10T18:40:08.854Z,1.80
2023-08-10T18:42:35.883Z,2.90
2023-08-10T18:45:02.878Z,2.03
2023-08-10T18:47:30.641Z,1.80
2023-08-10T18:49:57.520Z,2.73
2023-08-10T18:52:24.817Z,1.90
2023-08-10T18:54:51.850Z,1.70
2023-08-10T18:57:18.799Z,2.30
2023-08-10T18:59:45.708Z,2.00
2023-08-10T19:02:15.784Z,3.10
2023-08-10T19:04:42.791Z,3.90
2023-08-10T19:07:09.779Z,2.53
2023-08-10T19:09:37.982Z,2.40
2023-08-10T19:12:05.986Z,2.90
2023-08-10T19:14:33.226Z,3.40
2023-08-10T19:17:00.120Z,2.57
2023-08-10T19:19:27.062Z,2.00
2023-08-10T19:21:56.770Z,2.60
2023-08-10T19:24:23.954Z,2.80
2023-08-10T19:26:51.213Z,2.90
2023-08-10T19:29:18.137Z,2.60
2023-08-10T19:31:45.474Z,3.13
2023-08-10T19:34:12.518Z,3.10
2023-08-10T19:36:39.613Z,2.27
2023-08-10T19:39:07.357Z,3.00
2023-08-10T19:41:34.298Z,2.73
2023-08-10T19:44:01.304Z,2.70
2023-08-10T19:46:28.209Z,2.70
2023-08-10T19:48:55.615Z,3.00
2023-08-10T19:51:22.597Z,2.03
2023-08-10T19:53:49.606Z,2.60
2023-08-10T19:56:16.561Z,2.53
2023-08-10T19:58:43.603Z,3.50
2023-08-10T20:01:11.970Z,3.00
2023-08-10T20:03:39.038Z,2.80
2023-08-10T20:06:05.955Z,3.10
2023-08-10T20:08:32.966Z,2.80
2023-08-10T20:11:00.429Z,2.60
2023-08-10T20:13:28.745Z,3.63
2023-08-10T20:15:55.774Z,4.10
2023-08-10T20:18:24.366Z,4.43
2023-08-10T20:20:51.996Z,4.80
2023-08-10T20:23:18.962Z,4.83
2023-08-10T20:25:46.835Z,3.50
2023-08-10T20:28:13.769Z,3.00
2023-08-10T20:30:41.018Z,3.93
2023-08-10T20:33:10.687Z,3.47
2023-08-10T20:35:39.943Z,3.70
2023-08-10T20:38:09.451Z,3.13
2023-08-10T20:40:37.533Z,3.67
2023-08-10T20:43:05.362Z,3.50
2023-08-10T20:45:32.407Z,3.67
2023-08-10T20:48:01.134Z,4.53
2023-08-10T20:50:28.600Z,5.10
2023-08-10T20:52:55.567Z,4.60
2023-08-10T20:55:22.704Z,3.63
2023-08-10T20:57:52.939Z,3.17
2023-08-10T21:00:19.890Z,3.47
2023-08-10T21:02:49.514Z,3.40
2023-08-10T21:05:16.613Z,3.20
2023-08-10T21:07:43.678Z,3.53
2023-08-10T21:10:13.254Z,3.07
2023-08-10T21:12:40.993Z,3.50
2023-08-10T21:15:08.977Z,3.50
2023-08-10T21:17:41.148Z,3.20
2023-08-10T21:20:11.701Z,3.50
2023-08-10T21:22:40.135Z,3.70
2023-08-10T21:25:08.101Z,3.33
2023-08-10T21:27:35.114Z,4.40
2023-08-10T21:30:02.438Z,3.50
2023-08-10T21:32:29.800Z,3.53
2023-08-10T21:34:56.814Z,3.90
2023-08-10T21:37:23.793Z,4.17
2023-08-10T21:39:50.880Z,4.30
2023-08-10T21:42:17.789Z,4.13
2023-08-10T21:44:44.749Z,4.73
2023-08-10T21:47:11.644Z,4.20
2023-08-10T21:49:38.726Z,4.73
2023-08-10T21:52:05.985Z,4.70
2023-08-10T21:54:32.869Z,4.13
2023-08-10T21:57:02.665Z,4.27
2023-08-10T21:59:33.027Z,4.00
2023-08-10T22:02:00.737Z,4.93
2023-08-10T22:04:27.729Z,4.37
2023-08-10T22:06:54.653Z,4.80
2023-08-10T22:09:21.725Z,4.30
2023-08-10T22:11:48.709Z,5.23
2023-08-10T22:14:15.668Z,4.47
2023-08-10T22:16:42.721Z,4.80
2023-08-10T22:19:09.701Z,5.10
2023-08-10T22:21:37.158Z,5.10
2023-08-10T22:24:04.466Z,5.00
2023-08-10T22:26:31.347Z,6.27
2023-08-10T22:28:58.262Z,6.07
2023-08-10T22:31:25.826Z,5.40
2023-08-10T22:33:52.711Z,5.20
2023-08-10T22:36:19.659Z,5.30
2023-08-10T22:38:46.603Z,6.07
2023-08-10T22:41:14.902Z,5.53
2023-08-10T22:43:42.068Z,5.90
2023-08-10T22:46:09.084Z,6.63
2023-08-10T22:48:36.566Z,7.50
2023-08-10T22:51:04.203Z,5.87
2023-08-10T22:53:31.124Z,5.40
2023-08-10T22:55:58.022Z,5.70
2023-08-10T22:58:26.562Z,5.13
2023-08-10T23:00:53.543Z,5.80
2023-08-10T23:03:20.514Z,5.37
2023-08-10T23:05:47.778Z,4.90
2023-08-10T23:08:14.740Z,5.70
2023-08-10T23:10:42.601Z,6.60
2023-08-10T23:13:09.579Z,7.13
2023-08-10T23:15:36.565Z,8.60
2023-08-10T23:18:04.114Z,7.23
2023-08-10T23:20:31.560Z,9.30
2023-08-10T23:22:58.420Z,9.17
2023-08-10T23:25:25.332Z,8.80
2023-08-10T23:27:52.245Z,9.43
2023-08-10T23:30:19.722Z,6.53
2023-08-10T23:32:46.673Z,7.10
2023-08-10T23:35:13.809Z,5.77
2023-08-10T23:37:40.799Z,7.53
2023-08-10T23:40:13.482Z,7.67
2023-08-10T23:42:43.812Z,7.33
2023-08-10T23:45:12.370Z,7.73
2023-08-10T23:47:39.557Z,6.80
2023-08-10T23:50:10.151Z,7.30
2023-08-10T23:52:37.841Z,7.50
2023-08-10T23:55:06.977Z,6.60
2023-08-10T23:57:34.238Z,6.97
